createdAt,value
2022-08-07T00:00:31.817Z,102668.53
2022-08-07T00:03:04.771Z,102670.50
2022-08-07T00:05:39.018Z,102671.66
2022-08-07T00:08:12.918Z,102673.28
2022-08-07T00:10:47.647Z,102666.06
2022-08-07T00:13:25.824Z,102665.25
2022-08-07T00:16:00.061Z,102667.19
2022-08-07T00:18:33.575Z,102664.78
2022-08-07T00:21:55.989Z,102669.16
2022-08-07T00:24:03.817Z,102664.00
2022-08-07T00:26:58.805Z,102663.16
2022-08-07T00:29:33.539Z,102660.75
2022-08-07T00:32:11.613Z,102664.63
2022-08-07T00:34:49.198Z,102657.84
2022-08-07T00:37:24.946Z,102659.06
2022-08-07T00:40:02.220Z,102656.25
2022-08-07T00:42:36.560Z,102652.63
2022-08-07T00:45:16.192Z,102647.00
2022-08-07T00:48:09.114Z,102648.16
2022-08-07T00:50:46.145Z,102648.53
2022-08-07T00:53:24.279Z,102651.34
2022-08-07T00:56:00.501Z,102643.38
2022-08-07T00:58:36.610Z,102645.75
2022-08-07T01:01:12.337Z,102640.59
2022-08-07T01:03:55.449Z,102638.94
2022-08-07T01:06:30.924Z,102636.50
2022-08-07T01:09:05.575Z,102635.66
2022-08-07T01:12:10.004Z,102634.44
2022-08-07T01:14:37.167Z,102629.34
2022-08-07T01:17:12.403Z,102626.97
2022-08-07T01:19:54.254Z,102632.53
2022-08-07T01:22:29.748Z,102633.31
2022-08-07T01:25:05.190Z,102632.91
2022-08-07T01:27:57.173Z,102629.28
2022-08-07T01:30:33.628Z,102634.03
2022-08-07T01:33:06.969Z,102639.09
2022-08-07T01:35:54.463Z,102632.00
2022-08-07T01:38:37.903Z,102629.91
2022-08-07T01:41:26.163Z,102629.94
2022-08-07T01:44:04.636Z,102635.03
2022-08-07T01:46:41.734Z,102629.03
2022-08-07T01:49:15.618Z,102625.06
2022-08-07T01:52:03.870Z,102623.47
2022-08-07T01:54:42.762Z,102626.69
2022-08-07T01:57:24.810Z,102629.00
2022-08-07T02:00:13.332Z,102629.81
2022-08-07T02:03:11.918Z,102627.72
2022-08-07T02:05:59.655Z,102623.97
2022-08-07T02:08:42.365Z,102617.69
2022-08-07T02:11:30.797Z,102623.25
2022-08-07T02:14:14.551Z,102616.00
2022-08-07T02:17:07.232Z,102609.34
2022-08-07T02:20:04.967Z,102610.78
2022-08-07T02:22:41.444Z,102606.03
2022-08-07T02:25:19.825Z,102601.66
2022-08-07T02:28:06.999Z,102608.75
2022-08-07T02:30:45.373Z,102602.47
2022-08-07T02:33:41.829Z,102594.38
2022-08-07T02:36:28.235Z,102601.13
2022-08-07T02:39:16.265Z,102605.50
2022-08-07T02:41:55.139Z,102603.91
2022-08-07T02:44:34.618Z,102614.16
2022-08-07T02:47:19.838Z,102606.09
2022-08-07T02:50:00.182Z,102607.69
2022-08-07T02:52:44.204Z,102602.94
2022-08-07T02:55:28.669Z,102605.66
2022-08-07T02:58:21.723Z,102601.19
2022-08-07T03:01:00.302Z,102601.19
2022-08-07T03:03:50.004Z,102599.66
2022-08-07T03:06:33.088Z,102595.53
2022-08-07T03:09:11.321Z,102595.06
2022-08-07T03:11:52.684Z,102595.50
2022-08-07T03:14:36.167Z,102598.66
2022-08-07T03:17:11.922Z,102593.13
2022-08-07T03:19:44.972Z,102590.59
2022-08-07T03:22:30.571Z,102593.75
2022-08-07T03:25:05.047Z,102586.63
2022-08-07T03:28:08.797Z,102591.38
2022-08-07T03:30:44.240Z,102593.72
2022-08-07T03:33:20.244Z,102596.13
2022-08-07T03:35:54.356Z,102593.63
2022-08-07T03:38:29.380Z,102589.59
2022-08-07T03:41:04.965Z,102588.00
2022-08-07T03:43:39.290Z,102587.97
2022-08-07T03:46:18.791Z,102584.66
2022-08-07T03:49:03.051Z,102585.44
2022-08-07T03:51:47.734Z,102583.09
2022-08-07T03:54:35.786Z,102592.25
2022-08-07T03:58:08.885Z,102583.91
2022-08-07T04:00:18.208Z,102578.28
2022-08-07T04:02:57.493Z,102573.00
2022-08-07T04:05:42.169Z,102583.72
2022-08-07T04:08:26.097Z,102586.16
2022-08-07T04:12:23.498Z,102588.44
2022-08-07T04:14:32.897Z,102581.59
2022-08-07T04:16:58.105Z,102585.94
2022-08-07T04:19:50.915Z,102587.16
2022-08-07T04:22:29.709Z,102585.94
2022-08-07T04:25:12.742Z,102585.81
2022-08-07T04:27:53.779Z,102586.63
2022-08-07T04:30:39.580Z,102588.31
2022-08-07T04:33:29.744Z,102585.44
2022-08-07T04:36:06.571Z,102585.44
2022-08-07T04:38:41.599Z,102592.09
2022-08-07T04:41:18.141Z,102601.53
2022-08-07T04:44:12.216Z,102605.13
2022-08-07T04:47:08.065Z,102603.06
2022-08-07T04:49:57.696Z,102600.28
2022-08-07T04:52:46.836Z,102606.09
2022-08-07T04:58:16.932Z,102600.53
2022-08-07T04:59:07.649Z,102602.06
2022-08-07T05:01:36.398Z,102606.16
2022-08-07T05:04:17.452Z,102605.66
2022-08-07T05:07:09.778Z,102608.81
2022-08-07T05:10:00.845Z,102605.16
2022-08-07T05:12:52.937Z,102611.56
2022-08-07T05:15:36.330Z,102612.78
2022-08-07T05:18:17.354Z,102610.69
2022-08-07T05:20:54.752Z,102618.75
2022-08-07T05:23:35.592Z,102614.50
2022-08-07T05:26:18.831Z,102620.94
2022-08-07T05:29:04.889Z,102613.66
2022-08-07T05:31:47.551Z,102614.78
2022-08-07T05:34:30.189Z,102623.03
2022-08-07T05:37:06.044Z,102618.75
2022-08-07T05:40:13.513Z,102622.28
2022-08-07T05:42:39.304Z,102618.03
2022-08-07T05:45:28.058Z,102620.25
2022-08-07T05:48:10.874Z,102621.22
2022-08-07T05:50:50.745Z,102622.69
2022-08-07T05:54:09.540Z,102617.03
2022-08-07T05:56:30.151Z,102619.50
2022-08-07T05:59:09.995Z,102615.25
2022-08-07T06:01:51.261Z,102615.66
2022-08-07T06:04:30.146Z,102632.63
2022-08-07T06:07:05.960Z,102617.16
2022-08-07T06:09:45.093Z,102621.53
2022-08-07T06:12:36.179Z,102623.56
2022-08-07T06:15:15.267Z,102628.00
2022-08-07T06:17:54.881Z,102635.63
2022-08-07T06:20:50.436Z,102634.44
2022-08-07T06:24:37.419Z,102637.69
2022-08-07T06:26:18.567Z,102645.13
2022-08-07T06:28:53.216Z,102635.44
2022-08-07T06:31:47.065Z,102630.97
2022-08-07T06:34:24.422Z,102633.84
2022-08-07T06:37:02.861Z,102638.22
2022-08-07T06:40:16.464Z,102640.78
2022-08-07T06:42:39.015Z,102635.28
2022-08-07T06:45:24.804Z,102644.22
2022-08-07T06:48:02.999Z,102641.94
2022-08-07T06:50:47.670Z,102643.09
2022-08-07T06:54:11.660Z,102642.84
2022-08-07T06:56:49.770Z,102642.19
2022-08-07T07:00:11.708Z,102640.31
2022-08-07T07:02:48.597Z,102636.94
2022-08-07T07:06:02.901Z,102638.63
2022-08-07T07:08:18.519Z,102645.13
2022-08-07T07:10:59.016Z,102645.66
2022-08-07T07:13:56.672Z,102637.84
2022-08-07T07:16:45.088Z,102644.75
2022-08-07T07:19:55.799Z,102645.75
2022-08-07T07:22:36.161Z,102644.19
2022-08-07T07:26:32.038Z,102640.75
2022-08-07T07:28:42.738Z,102637.28
2022-08-07T07:31:17.241Z,102641.41
2022-08-07T07:33:58.971Z,102638.28
2022-08-07T07:36:34.183Z,102648.69
2022-08-07T07:39:07.303Z,102642.84
2022-08-07T07:42:01.884Z,102643.34
2022-08-07T07:44:43.057Z,102640.28
2022-08-07T07:47:23.734Z,102632.41
2022-08-07T07:50:36.178Z,102638.03
2022-08-07T07:52:56.234Z,102637.72
2022-08-07T07:55:37.797Z,102642.16
2022-08-07T07:58:20.913Z,102644.56
2022-08-07T08:00:56.761Z,102633.84
2022-08-07T08:04:09.436Z,102640.63
2022-08-07T08:06:32.839Z,102639.44
2022-08-07T08:09:08.058Z,102636.31
2022-08-07T08:11:59.128Z,102633.53
2022-08-07T08:14:37.297Z,102623.13
2022-08-07T08:17:32.382Z,102628.72
2022-08-07T08:20:17.740Z,102618.31
2022-08-07T08:23:15.816Z,102622.28
2022-08-07T08:26:22.577Z,102624.56
2022-08-07T08:28:59.458Z,102634.13
2022-08-07T08:31:58.797Z,102635.56
2022-08-07T08:34:40.967Z,102630.00
2022-08-07T08:37:59.313Z,102618.28
2022-08-07T08:40:23.613Z,102627.53
2022-08-07T08:43:10.085Z,102621.69
2022-08-07T08:45:58.956Z,102625.41
2022-08-07T08:48:41.283Z,102622.72
2022-08-07T08:51:23.215Z,102619.91
2022-08-07T08:54:25.183Z,102617.41
2022-08-07T08:57:02.307Z,102612.75
2022-08-07T08:59:48.202Z,102613.47
2022-08-07T09:02:37.352Z,102616.72
2022-08-07T09:05:37.545Z,102623.13
2022-08-07T09:08:28.120Z,102623.22
2022-08-07T09:11:14.057Z,102626.75
2022-08-07T09:14:08.669Z,102627.59
2022-08-07T09:16:58.743Z,102631.53
2022-08-07T09:19:53.320Z,102618.97
2022-08-07T09:24:33.017Z,102624.31
2022-08-07T09:25:56.979Z,102626.09
2022-08-07T09:30:00.734Z,102620.53
2022-08-07T09:31:48.541Z,102623.81
2022-08-07T09:34:27.176Z,102633.19
2022-08-07T09:37:05.503Z,102617.13
2022-08-07T09:39:56.084Z,102627.72
2022-08-07T09:42:42.165Z,102622.53
2022-08-07T09:47:27.624Z,102627.88
2022-08-07T09:48:29.709Z,102626.41
2022-08-07T09:52:10.134Z,102619.75
2022-08-07T09:54:21.072Z,102618.38
2022-08-07T09:57:36.608Z,102613.72
2022-08-07T10:00:14.636Z,102608.75
2022-08-07T10:04:02.788Z,102610.50
2022-08-07T10:06:24.771Z,102611.41
2022-08-07T10:09:42.747Z,102598.84
2022-08-07T10:12:52.961Z,102592.09
2022-08-07T10:15:44.609Z,102590.22
2022-08-07T10:18:31.561Z,102593.53
2022-08-07T10:22:14.161Z,102580.28
2022-08-07T10:24:39.696Z,102597.59
2022-08-07T10:27:46.251Z,102592.97
2022-08-07T10:30:28.468Z,102584.44
2022-08-07T10:33:15.200Z,102583.66
2022-08-07T10:36:10.856Z,102577.44
2022-08-07T10:38:53.196Z,102575.88
2022-08-07T10:41:46.847Z,102571.16
2022-08-07T10:44:38.264Z,102573.63
2022-08-07T10:47:26.947Z,102571.47
2022-08-07T10:50:11.675Z,102563.72
2022-08-07T10:52:56.651Z,102564.13
2022-08-07T10:55:38.963Z,102567.09
2022-08-07T10:58:32.053Z,102562.75
2022-08-07T11:01:35.634Z,102558.31
2022-08-07T11:04:34.550Z,102571.34
2022-08-07T11:07:56.356Z,102556.84
2022-08-07T11:10:20.585Z,102552.94
2022-08-07T11:13:03.793Z,102552.88
2022-08-07T11:15:40.763Z,102551.38
2022-08-07T11:18:19.390Z,102551.75
2022-08-07T11:21:03.656Z,102551.25
2022-08-07T11:23:45.886Z,102547.09
2022-08-07T11:26:27.783Z,102542.03
2022-08-07T11:29:13.237Z,102543.72
2022-08-07T11:32:06.198Z,102533.09
2022-08-07T11:34:47.023Z,102537.28
2022-08-07T11:38:08.915Z,102535.47
2022-08-07T11:40:49.566Z,102534.63
2022-08-07T11:43:29.455Z,102528.63
2022-08-07T11:46:28.145Z,102530.38
2022-08-07T11:49:51.392Z,102526.19
2022-08-07T11:52:43.503Z,102518.69
2022-08-07T11:56:25.546Z,102517.59
2022-08-07T11:58:39.450Z,102516.06
2022-08-07T12:01:59.405Z,102520.38
2022-08-07T12:04:47.101Z,102521.81
2022-08-07T12:07:38.704Z,102527.13
2022-08-07T12:10:20.678Z,102520.66
2022-08-07T12:13:11.514Z,102517.91
2022-08-07T12:16:06.575Z,102524.69
2022-08-07T12:18:47.974Z,102527.75
2022-08-07T12:21:55.443Z,102529.34
2022-08-07T12:24:40.375Z,102528.59
2022-08-07T12:27:17.039Z,102523.34
2022-08-07T12:29:54.988Z,102524.50
2022-08-07T12:32:35.575Z,102518.94
2022-08-07T12:35:11.993Z,102517.97
2022-08-07T12:38:11.498Z,102521.56
2022-08-07T12:40:50.085Z,102513.84
2022-08-07T12:44:02.284Z,102517.47
2022-08-07T12:46:34.756Z,102513.94
2022-08-07T12:49:25.348Z,102510.53
2022-08-07T12:52:17.059Z,102508.97
2022-08-07T12:55:03.537Z,102514.44
2022-08-07T12:58:00.216Z,102512.19
2022-08-07T13:00:50.442Z,102502.50
2022-08-07T13:03:56.304Z,102495.78
2022-08-07T13:06:54.392Z,102500.88
2022-08-07T13:10:28.888Z,102499.31
2022-08-07T13:13:46.845Z,102497.91
2022-08-07T13:16:16.029Z,102501.41
2022-08-07T13:18:54.998Z,102495.28
2022-08-07T13:21:50.434Z,102496.06
2022-08-07T13:24:29.363Z,102502.56
2022-08-07T13:27:11.436Z,102501.34
2022-08-07T13:29:54.084Z,102495.78
2022-08-07T13:32:35.223Z,102500.88
2022-08-07T13:35:21.494Z,102493.63
2022-08-07T13:38:01.129Z,102492.13
2022-08-07T13:40:42.660Z,102495.84
2022-08-07T13:43:17.017Z,102487.06
2022-08-07T13:46:11.831Z,102492.66
2022-08-07T13:48:58.692Z,102484.25
2022-08-07T13:52:04.741Z,102487.06
2022-08-07T13:54:33.568Z,102481.09
2022-08-07T13:57:14.559Z,102487.41
2022-08-07T14:00:01.961Z,102486.28
2022-08-07T14:02:51.216Z,102487.09
2022-08-07T14:05:37.322Z,102488.03
2022-08-07T14:08:12.695Z,102489.31
2022-08-07T14:11:02.058Z,102486.94
2022-08-07T14:13:45.165Z,102489.28
2022-08-07T14:16:27.100Z,102487.25
2022-08-07T14:19:17.747Z,102489.63
2022-08-07T14:22:10.781Z,102494.97
2022-08-07T14:24:50.823Z,102503.44
2022-08-07T14:28:12.452Z,102501.94
2022-08-07T14:30:32.717Z,102498.25
2022-08-07T14:33:06.799Z,102490.34
2022-08-07T14:35:47.438Z,102487.78
2022-08-07T14:38:30.743Z,102489.16
2022-08-07T14:41:14.671Z,102488.28
2022-08-07T14:43:58.901Z,102477.56
2022-08-07T14:46:51.582Z,102484.66
2022-08-07T14:52:27.976Z,102481.25
2022-08-07T14:55:02.706Z,102486.50
2022-08-07T14:57:54.689Z,102483.34
2022-08-07T15:00:33.031Z,102482.00
2022-08-07T15:06:03.825Z,102478.75
2022-08-07T15:08:47.447Z,102474.19
2022-08-07T15:11:53.171Z,102473.69
2022-08-07T15:14:23.337Z,102473.38
2022-08-07T15:17:01.901Z,102467.75
2022-08-07T15:20:23.601Z,102468.31
2022-08-07T15:22:43.073Z,102471.94
2022-08-07T15:28:34.158Z,102467.88
2022-08-07T15:34:19.689Z,102460.00
2022-08-07T15:37:02.773Z,102462.16
2022-08-07T15:39:56.619Z,102458.47
2022-08-07T15:45:57.546Z,102450.72
2022-08-07T15:48:37.029Z,102457.16
2022-08-07T15:54:24.868Z,102451.34
2022-08-07T15:57:01.744Z,102448.19
2022-08-07T15:59:44.114Z,102447.06
2022-08-07T16:02:32.294Z,102439.56
2022-08-07T16:05:15.104Z,102446.38
2022-08-07T16:08:32.013Z,102439.34
2022-08-07T16:10:58.656Z,102437.78
2022-08-07T16:13:58.695Z,102430.88
2022-08-07T16:16:48.746Z,102425.25
2022-08-07T16:19:58.653Z,102435.50
2022-08-07T16:22:54.969Z,102433.47
2022-08-07T16:25:55.058Z,102428.84
2022-08-07T16:30:06.405Z,102428.69
2022-08-07T16:31:50.950Z,102422.56
2022-08-07T16:34:40.382Z,102427.59
2022-08-07T16:38:06.470Z,102424.22
2022-08-07T16:41:12.401Z,102428.75
2022-08-07T16:44:46.366Z,102420.75
2022-08-07T16:47:35.993Z,102431.28
2022-08-07T16:50:39.100Z,102427.44
2022-08-07T16:53:56.990Z,102424.22
2022-08-07T16:56:43.207Z,102429.84
2022-08-07T16:59:25.499Z,102432.31
2022-08-07T17:02:53.093Z,102424.50
2022-08-07T17:06:19.276Z,102435.22
2022-08-07T17:09:09.357Z,102426.81
2022-08-07T17:12:04.161Z,102425.25
2022-08-07T17:14:52.937Z,102425.41
2022-08-07T17:17:46.954Z,102421.72
2022-08-07T17:20:31.210Z,102413.63
2022-08-07T17:23:17.508Z,102421.84
2022-08-07T17:26:02.538Z,102414.88
2022-08-07T17:28:41.551Z,102408.03
2022-08-07T17:31:26.600Z,102411.88
2022-08-07T17:34:33.468Z,102406.25
2022-08-07T17:38:09.396Z,102412.13
2022-08-07T17:40:15.636Z,102403.09
2022-08-07T17:42:58.207Z,102401.84
2022-08-07T17:45:37.126Z,102400.38
2022-08-07T17:48:16.756Z,102403.75
2022-08-07T17:51:16.393Z,102406.34
2022-08-07T17:54:06.155Z,102396.28
2022-08-07T17:56:49.770Z,102401.44
2022-08-07T17:59:35.938Z,102396.47
2022-08-07T18:02:14.688Z,102389.91
2022-08-07T18:04:55.579Z,102383.34
2022-08-07T18:07:43.872Z,102395.25
2022-08-07T18:10:32.716Z,102399.84
2022-08-07T18:13:15.294Z,102405.66
2022-08-07T18:16:05.848Z,102403.06
2022-08-07T18:21:04.513Z,102401.97
2022-08-07T18:21:57.759Z,102390.47
2022-08-07T18:24:37.911Z,102392.34
2022-08-07T18:27:45.597Z,102395.44
2022-08-07T18:30:31.631Z,102403.63
2022-08-07T18:33:55.714Z,102396.34
2022-08-07T18:36:37.733Z,102404.50
2022-08-07T18:40:08.131Z,102404.84
2022-08-07T18:42:28.511Z,102403.34
2022-08-07T18:45:43.956Z,102400.06
2022-08-07T18:48:10.188Z,102401.63
2022-08-07T18:51:14.916Z,102403.19
2022-08-07T18:54:01.464Z,102405.63
2022-08-07T18:56:57.936Z,102400.78
2022-08-07T18:59:58.859Z,102406.47
2022-08-07T19:02:42.244Z,102406.97
2022-08-07T19:05:23.576Z,102407.19
2022-08-07T19:08:05.257Z,102408.19
2022-08-07T19:10:51.931Z,102403.09
2022-08-07T19:13:31.924Z,102407.63
2022-08-07T19:17:06.128Z,102407.19
2022-08-07T19:19:31.573Z,102403.00
2022-08-07T19:22:11.170Z,102410.63
2022-08-07T19:24:48.685Z,102418.09
2022-08-07T19:28:58.102Z,102426.88
2022-08-07T19:31:03.464Z,102426.94
2022-08-07T19:33:16.048Z,102428.94
2022-08-07T19:35:56.542Z,102431.88
2022-08-07T19:38:33.206Z,102429.81
2022-08-07T19:41:08.019Z,102437.00
2022-08-07T19:43:52.099Z,102434.19
2022-08-07T19:46:35.849Z,102438.09
2022-08-07T19:49:16.185Z,102439.09
2022-08-07T19:52:00.683Z,102441.28
2022-08-07T19:54:55.808Z,102446.94
2022-08-07T19:58:04.779Z,102445.50
2022-08-07T20:00:36.634Z,102451.34
2022-08-07T20:03:33.462Z,102453.56
2022-08-07T20:06:15.540Z,102453.94
2022-08-07T20:09:07.401Z,102455.91
2022-08-07T20:12:31.942Z,102448.53
2022-08-07T20:14:58.505Z,102449.03
2022-08-07T20:17:38.560Z,102461.63
2022-08-07T20:20:13.389Z,102454.53
2022-08-07T20:22:51.352Z,102455.69
2022-08-07T20:25:25.426Z,102454.06
2022-08-07T20:28:05.558Z,102455.78
2022-08-07T20:30:46.738Z,102468.66
2022-08-07T20:33:36.811Z,102457.53
2022-08-07T20:36:12.127Z,102457.53
2022-08-07T20:39:00.339Z,102448.78
2022-08-07T20:41:40.633Z,102454.44
2022-08-07T20:44:14.741Z,102452.06
2022-08-07T20:46:48.454Z,102456.06
2022-08-07T20:49:58.480Z,102446.22
2022-08-07T20:52:51.081Z,102445.44
2022-08-07T20:55:26.701Z,102447.88
2022-08-07T20:58:03.655Z,102443.50
2022-08-07T21:00:46.736Z,102443.59
2022-08-07T21:03:23.288Z,102444.41
2022-08-07T21:06:21.433Z,102453.59
2022-08-07T21:09:07.554Z,102458.84
2022-08-07T21:11:55.670Z,102451.78
2022-08-07T21:14:34.890Z,102465.31
2022-08-07T21:18:06.500Z,102462.59
2022-08-07T21:20:07.014Z,102461.84
2022-08-07T21:22:51.224Z,102451.50
2022-08-07T21:25:30.757Z,102461.47
2022-08-07T21:28:48.786Z,102455.53
2022-08-07T21:31:16.108Z,102453.56
2022-08-07T21:34:13.841Z,102455.59
2022-08-07T21:36:54.038Z,102458.00
2022-08-07T21:39:46.706Z,102455.25
2022-08-07T21:42:42.544Z,102459.69
2022-08-07T21:46:11.079Z,102450.16
2022-08-07T21:48:28.803Z,102457.75
2022-08-07T21:51:25.099Z,102470.53
2022-08-07T21:54:13.887Z,102462.59
2022-08-07T21:57:07.093Z,102466.22
2022-08-07T22:00:05.008Z,102465.06
2022-08-07T22:02:45.914Z,102473.84
2022-08-07T22:05:45.841Z,102465.88
2022-08-07T22:08:18.899Z,102477.50
2022-08-07T22:10:58.861Z,102473.13
2022-08-07T22:13:51.848Z,102472.34
2022-08-07T22:16:39.209Z,102473.13
2022-08-07T22:19:29.675Z,102475.94
2022-08-07T22:22:17.938Z,102481.53
2022-08-07T22:25:10.826Z,102477.59
2022-08-07T22:28:02.958Z,102482.75
2022-08-07T22:30:53.354Z,102492.75
2022-08-07T22:33:53.600Z,102490.38
2022-08-07T22:36:36.190Z,102495.16
2022-08-07T22:39:23.412Z,102488.44
2022-08-07T22:42:19.876Z,102492.03
2022-08-07T22:45:03.517Z,102489.25
2022-08-07T22:48:13.683Z,102491.63
2022-08-07T22:51:23.008Z,102482.88
2022-08-07T22:54:10.725Z,102482.09
2022-08-07T22:57:00.712Z,102483.72
2022-08-07T22:59:51.057Z,102476.94
2022-08-07T23:02:32.178Z,102478.94
2022-08-07T23:06:08.794Z,102480.53
2022-08-07T23:08:37.335Z,102492.09
2022-08-07T23:11:35.146Z,102486.50
2022-08-07T23:14:31.952Z,102486.53
2022-08-07T23:17:20.003Z,102482.13
2022-08-07T23:20:52.482Z,102480.53
2022-08-07T23:24:06.888Z,102480.56
2022-08-07T23:27:13.820Z,102486.94
2022-08-07T23:30:35.893Z,102490.88
2022-08-07T23:34:34.244Z,102503.25
2022-08-07T23:36:17.336Z,102495.69
2022-08-07T23:39:08.449Z,102498.88
2022-08-07T23:42:04.514Z,102501.28
2022-08-07T23:45:15.056Z,102504.44
2022-08-07T23:48:30.143Z,102494.91
2022-08-07T23:52:58.212Z,102505.66
2022-08-07T23:54:19.454Z,102503.66
2022-08-07T23:57:01.941Z,102489.75
